sensor_id;sensor_type;location;lat;lon;timestamp;P1;durP1;ratioP1;P2;durP2;ratioP2
48823;SDS011;34640;53.590;10.054;2023-01-13T00:00:19;1.70;;;1.13;;
48823;SDS011;34640;53.590;10.054;2023-01-13T00:02:53;2.72;;;1.20;;
48823;SDS011;34640;53.590;10.054;2023-01-13T00:05:27;1.52;;;1.02;;
48823;SDS011;34640;53.590;10.054;2023-01-13T00:08:02;4.18;;;1.10;;
48823;SDS011;34640;53.590;10.054;2023-01-13T00:10:37;3.03;;;1.10;;
48823;SDS011;34640;53.590;10.054;2023-01-13T00:13:11;2.30;;;1.40;;
48823;SDS011;34640;53.590;10.054;2023-01-13T00:15:53;2.25;;;1.80;;
48823;SDS011;34640;53.590;10.054;2023-01-13T00:18:28;2.13;;;1.30;;
48823;SDS011;34640;53.590;10.054;2023-01-13T00:21:02;3.90;;;1.08;;
48823;SDS011;34640;53.590;10.054;2023-01-13T00:23:38;2.42;;;0.90;;
48823;SDS011;34640;53.590;10.054;2023-01-13T00:26:14;4.30;;;1.20;;
48823;SDS011;34640;53.590;10.054;2023-01-13T00:28:49;2.22;;;1.10;;
48823;SDS011;34640;53.590;10.054;2023-01-13T00:31:23;3.33;;;1.20;;
48823;SDS011;34640;53.590;10.054;2023-01-13T00:33:57;6.22;;;1.30;;
48823;SDS011;34640;53.590;10.054;2023-01-13T00:36:31;1.38;;;0.60;;
48823;SDS011;34640;53.590;10.054;2023-01-13T00:39:06;4.70;;;0.85;;
48823;SDS011;34640;53.590;10.054;2023-01-13T00:41:40;4.45;;;0.90;;
48823;SDS011;34640;53.590;10.054;2023-01-13T00:44:31;3.92;;;1.00;;
48823;SDS011;34640;53.590;10.054;2023-01-13T00:47:05;4.03;;;0.85;;
48823;SDS011;34640;53.590;10.054;2023-01-13T00:49:38;5.20;;;0.80;;
48823;SDS011;34640;53.590;10.054;2023-01-13T00:52:12;3.17;;;0.90;;
48823;SDS011;34640;53.590;10.054;2023-01-13T00:54:47;5.22;;;0.80;;
48823;SDS011;34640;53.590;10.054;2023-01-13T00:57:20;6.22;;;0.68;;
48823;SDS011;34640;53.590;10.054;2023-01-13T00:59:54;5.38;;;1.00;;
48823;SDS011;34640;53.590;10.054;2023-01-13T01:02:28;6.35;;;0.60;;
48823;SDS011;34640;53.590;10.054;2023-01-13T01:05:01;3.97;;;0.75;;
48823;SDS011;34640;53.590;10.054;2023-01-13T01:07:35;8.45;;;0.82;;
48823;SDS011;34640;53.590;10.054;2023-01-13T01:10:11;4.97;;;1.02;;
48823;SDS011;34640;53.590;10.054;2023-01-13T01:12:44;8.02;;;0.70;;
48823;SDS011;34640;53.590;10.054;2023-01-13T01:15:18;6.95;;;1.30;;
48823;SDS011;34640;53.590;10.054;2023-01-13T01:17:52;7.68;;;1.02;;
48823;SDS011;34640;53.590;10.054;2023-01-13T01:20:25;7.72;;;1.00;;
48823;SDS011;34640;53.590;10.054;2023-01-13T01:22:59;5.70;;;1.00;;
48823;SDS011;34640;53.590;10.054;2023-01-13T01:25:34;7.00;;;1.08;;
48823;SDS011;34640;53.590;10.054;2023-01-13T01:28:08;12.35;;;1.40;;
48823;SDS011;34640;53.590;10.054;2023-01-13T01:30:41;4.97;;;1.08;;
48823;SDS011;34640;53.590;10.054;2023-01-13T01:33:15;9.60;;;1.50;;
48823;SDS011;34640;53.590;10.054;2023-01-13T01:35:49;7.82;;;1.13;;
48823;SDS011;34640;53.590;10.054;2023-01-13T01:38:22;8.82;;;1.00;;
48823;SDS011;34640;53.590;10.054;2023-01-13T01:40:57;7.15;;;1.15;;
48823;SDS011;34640;53.590;10.054;2023-01-13T01:43:48;15.95;;;1.30;;
48823;SDS011;34640;53.590;10.054;2023-01-13T01:46:34;7.40;;;1.05;;
48823;SDS011;34640;53.590;10.054;2023-01-13T01:49:11;9.52;;;1.20;;
48823;SDS011;34640;53.590;10.054;2023-01-13T01:51:49;12.75;;;2.40;;
48823;SDS011;34640;53.590;10.054;2023-01-13T01:54:27;8.43;;;1.30;;
48823;SDS011;34640;53.590;10.054;2023-01-13T01:57:09;7.95;;;1.30;;
48823;SDS011;34640;53.590;10.054;2023-01-13T01:59:47;7.47;;;1.80;;
48823;SDS011;34640;53.590;10.054;2023-01-13T02:02:21;11.63;;;1.55;;
48823;SDS011;34640;53.590;10.054;2023-01-13T02:04:55;7.32;;;1.23;;
48823;SDS011;34640;53.590;10.054;2023-01-13T02:07:30;9.55;;;1.80;;
48823;SDS011;34640;53.590;10.054;2023-01-13T02:10:07;11.23;;;2.40;;
48823;SDS011;34640;53.590;10.054;2023-01-13T02:12:45;10.63;;;1.50;;
48823;SDS011;34640;53.590;10.054;2023-01-13T02:15:21;13.93;;;1.73;;
48823;SDS011;34640;53.590;10.054;2023-01-13T02:18:05;13.80;;;2.03;;
48823;SDS011;34640;53.590;10.054;2023-01-13T02:24:09;9.52;;;1.42;;
48823;SDS011;34640;53.590;10.054;2023-01-13T02:30:21;15.27;;;1.90;;
48823;SDS011;34640;53.590;10.054;2023-01-13T02:33:24;19.77;;;2.75;;
48823;SDS011;34640;53.590;10.054;2023-01-13T02:36:09;10.88;;;1.83;;
48823;SDS011;34640;53.590;10.054;2023-01-13T02:38:50;13.80;;;1.70;;
48823;SDS011;34640;53.590;10.054;2023-01-13T02:41:30;16.67;;;2.25;;
48823;SDS011;34640;53.590;10.054;2023-01-13T02:44:29;13.80;;;2.00;;
48823;SDS011;34640;53.590;10.054;2023-01-13T02:47:13;23.60;;;2.63;;
48823;SDS011;34640;53.590;10.054;2023-01-13T02:49:53;14.70;;;2.05;;
48823;SDS011;34640;53.590;10.054;2023-01-13T02:52:31;16.55;;;2.40;;
48823;SDS011;34640;53.590;10.054;2023-01-13T02:55:09;18.35;;;2.08;;
48823;SDS011;34640;53.590;10.054;2023-01-13T02:57:46;14.52;;;2.22;;
48823;SDS011;34640;53.590;10.054;2023-01-13T03:00:22;19.33;;;1.75;;
48823;SDS011;34640;53.590;10.054;2023-01-13T03:02:57;18.98;;;2.00;;
48823;SDS011;34640;53.590;10.054;2023-01-13T03:05:32;16.50;;;2.40;;
48823;SDS011;34640;53.590;10.054;2023-01-13T03:08:10;19.40;;;3.08;;
48823;SDS011;34640;53.590;10.054;2023-01-13T03:10:57;16.77;;;2.47;;
48823;SDS011;34640;53.590;10.054;2023-01-13T03:16:35;24.10;;;3.08;;
48823;SDS011;34640;53.590;10.054;2023-01-13T03:19:20;18.48;;;2.25;;
48823;SDS011;34640;53.590;10.054;2023-01-13T03:22:04;15.85;;;2.30;;
48823;SDS011;34640;53.590;10.054;2023-01-13T03:24:47;15.13;;;1.90;;
48823;SDS011;34640;53.590;10.054;2023-01-13T03:27:24;12.27;;;1.80;;
48823;SDS011;34640;53.590;10.054;2023-01-13T03:32:40;23.15;;;3.70;;
48823;SDS011;34640;53.590;10.054;2023-01-13T03:35:18;13.35;;;1.80;;
48823;SDS011;34640;53.590;10.054;2023-01-13T03:37:56;13.27;;;2.10;;
48823;SDS011;34640;53.590;10.054;2023-01-13T03:43:12;26.13;;;3.40;;
48823;SDS011;34640;53.590;10.054;2023-01-13T03:46:09;29.88;;;3.17;;
48823;SDS011;34640;53.590;10.054;2023-01-13T03:48:47;21.58;;;2.65;;
48823;SDS011;34640;53.590;10.054;2023-01-13T03:51:26;24.80;;;3.22;;
48823;SDS011;34640;53.590;10.054;2023-01-13T03:54:04;21.08;;;3.22;;
48823;SDS011;34640;53.590;10.054;2023-01-13T03:56:41;26.95;;;3.40;;
48823;SDS011;34640;53.590;10.054;2023-01-13T03:59:18;24.65;;;2.97;;
48823;SDS011;34640;53.590;10.054;2023-01-13T04:01:57;30.73;;;3.63;;
48823;SDS011;34640;53.590;10.054;2023-01-13T04:04:34;27.48;;;3.85;;
48823;SDS011;34640;53.590;10.054;2023-01-13T04:07:14;20.30;;;3.10;;
48823;SDS011;34640;53.590;10.054;2023-01-13T04:09:54;24.75;;;3.50;;
48823;SDS011;34640;53.590;10.054;2023-01-13T04:12:32;40.77;;;4.53;;
48823;SDS011;34640;53.590;10.054;2023-01-13T04:15:25;29.58;;;3.97;;
48823;SDS011;34640;53.590;10.054;2023-01-13T04:18:01;33.67;;;4.38;;
48823;SDS011;34640;53.590;10.054;2023-01-13T04:20:42;31.02;;;4.20;;
48823;SDS011;34640;53.590;10.054;2023-01-13T04:23:19;28.58;;;3.55;;
48823;SDS011;34640;53.590;10.054;2023-01-13T04:26:03;29.50;;;3.45;;
48823;SDS011;34640;53.590;10.054;2023-01-13T04:28:36;21.08;;;3.67;;
48823;SDS011;34640;53.590;10.054;2023-01-13T04:31:12;31.02;;;4.05;;
48823;SDS011;34640;53.590;10.054;2023-01-13T04:33:45;36.88;;;5.47;;
48823;SDS011;34640;53.590;10.054;2023-01-13T04:36:19;21.27;;;3.53;;
48823;SDS011;34640;53.590;10.054;2023-01-13T04:38:57;29.15;;;4.25;;
48823;SDS011;34640;53.590;10.054;2023-01-13T04:41:32;27.25;;;3.90;;
48823;SDS011;34640;53.590;10.054;2023-01-13T04:44:26;27.45;;;3.80;;
48823;SDS011;34640;53.590;10.054;2023-01-13T04:47:00;25.08;;;3.38;;
48823;SDS011;34640;53.590;10.054;2023-01-13T04:49:33;20.42;;;2.90;;
48823;SDS011;34640;53.590;10.054;2023-01-13T04:52:07;32.00;;;3.05;;
48823;SDS011;34640;53.590;10.054;2023-01-13T04:54:42;26.45;;;2.88;;
48823;SDS011;34640;53.590;10.054;2023-01-13T04:57:16;26.42;;;2.85;;
48823;SDS011;34640;53.590;10.054;2023-01-13T04:59:49;32.85;;;3.63;;
48823;SDS011;34640;53.590;10.054;2023-01-13T05:02:23;23.25;;;3.00;;
48823;SDS011;34640;53.590;10.054;2023-01-13T05:04:57;28.45;;;3.22;;
48823;SDS011;34640;53.590;10.054;2023-01-13T05:07:31;26.55;;;2.97;;
48823;SDS011;34640;53.590;10.054;2023-01-13T05:10:07;28.02;;;3.42;;
48823;SDS011;34640;53.590;10.054;2023-01-13T05:12:42;23.25;;;3.45;;
48823;SDS011;34640;53.590;10.054;2023-01-13T05:15:33;31.17;;;5.15;;
48823;SDS011;34640;53.590;10.054;2023-01-13T05:18:24;32.05;;;3.95;;
48823;SDS011;34640;53.590;10.054;2023-01-13T05:20:58;29.75;;;3.17;;
48823;SDS011;34640;53.590;10.054;2023-01-13T05:23:32;29.20;;;5.18;;
48823;SDS011;34640;53.590;10.054;2023-01-13T05:26:24;26.10;;;3.85;;
48823;SDS011;34640;53.590;10.054;2023-01-13T05:28:58;26.92;;;3.00;;
48823;SDS011;34640;53.590;10.054;2023-01-13T05:31:31;27.13;;;3.72;;
48823;SDS011;34640;53.590;10.054;2023-01-13T05:34:05;29.08;;;3.83;;
48823;SDS011;34640;53.590;10.054;2023-01-13T05:36:39;25.48;;;3.05;;
48823;SDS011;34640;53.590;10.054;2023-01-13T05:39:13;24.65;;;3.25;;
48823;SDS011;34640;53.590;10.054;2023-01-13T05:41:48;33.92;;;3.50;;
48823;SDS011;34640;53.590;10.054;2023-01-13T05:44:50;48.42;;;3.75;;
48823;SDS011;34640;53.590;10.054;2023-01-13T05:47:24;19.98;;;3.55;;
48823;SDS011;34640;53.590;10.054;2023-01-13T05:49:58;31.98;;;3.70;;
48823;SDS011;34640;53.590;10.054;2023-01-13T05:52:32;27.40;;;3.72;;
48823;SDS011;34640;53.590;10.054;2023-01-13T05:55:06;29.20;;;4.32;;
48823;SDS011;34640;53.590;10.054;2023-01-13T05:57:42;23.40;;;3.33;;
48823;SDS011;34640;53.590;10.054;2023-01-13T06:00:16;27.50;;;3.83;;
48823;SDS011;34640;53.590;10.054;2023-01-13T06:02:50;30.10;;;3.70;;
48823;SDS011;34640;53.590;10.054;2023-01-13T06:05:24;30.40;;;3.42;;
48823;SDS011;34640;53.590;10.054;2023-01-13T06:07:58;27.25;;;3.85;;
48823;SDS011;34640;53.590;10.054;2023-01-13T06:10:33;30.17;;;3.17;;
48823;SDS011;34640;53.590;10.054;2023-01-13T06:13:09;34.53;;;4.32;;
48823;SDS011;34640;53.590;10.054;2023-01-13T06:15:42;27.40;;;4.80;;
48823;SDS011;34640;53.590;10.054;2023-01-13T06:18:16;25.95;;;3.58;;
48823;SDS011;34640;53.590;10.054;2023-01-13T06:20:50;30.73;;;3.70;;
48823;SDS011;34640;53.590;10.054;2023-01-13T06:23:23;24.42;;;3.70;;
48823;SDS011;34640;53.590;10.054;2023-01-13T06:25:59;29.60;;;4.78;;
48823;SDS011;34640;53.590;10.054;2023-01-13T06:28:39;30.05;;;3.50;;
48823;SDS011;34640;53.590;10.054;2023-01-13T06:31:13;30.08;;;2.95;;
48823;SDS011;34640;53.590;10.054;2023-01-13T06:33:47;27.65;;;3.88;;
48823;SDS011;34640;53.590;10.054;2023-01-13T06:36:26;27.07;;;3.80;;
48823;SDS011;34640;53.590;10.054;2023-01-13T06:39:03;30.67;;;4.35;;
48823;SDS011;34640;53.590;10.054;2023-01-13T06:41:38;27.60;;;3.85;;
48823;SDS011;34640;53.590;10.054;2023-01-13T06:44:27;25.80;;;3.30;;
48823;SDS011;34640;53.590;10.054;2023-01-13T06:47:01;32.67;;;3.95;;
48823;SDS011;34640;53.590;10.054;2023-01-13T06:49:35;24.48;;;3.30;;
48823;SDS011;34640;53.590;10.054;2023-01-13T06:52:09;21.38;;;3.20;;
48823;SDS011;34640;53.590;10.054;2023-01-13T06:54:43;32.38;;;3.78;;
48823;SDS011;34640;53.590;10.054;2023-01-13T06:57:17;26.73;;;3.00;;
48823;SDS011;34640;53.590;10.054;2023-01-13T06:59:52;28.25;;;3.40;;
48823;SDS011;34640;53.590;10.054;2023-01-13T07:02:26;25.38;;;3.10;;
48823;SDS011;34640;53.590;10.054;2023-01-13T07:05:00;26.05;;;3.45;;
48823;SDS011;34640;53.590;10.054;2023-01-13T07:07:35;22.85;;;4.22;;
48823;SDS011;34640;53.590;10.054;2023-01-13T07:10:10;25.95;;;4.30;;
48823;SDS011;34640;53.590;10.054;2023-01-13T07:12:46;23.00;;;3.67;;
48823;SDS011;34640;53.590;10.054;2023-01-13T07:15:39;20.27;;;3.42;;
48823;SDS011;34640;53.590;10.054;2023-01-13T07:18:13;26.25;;;3.85;;
48823;SDS011;34640;53.590;10.054;2023-01-13T07:20:51;26.50;;;4.05;;
48823;SDS011;34640;53.590;10.054;2023-01-13T07:23:26;26.08;;;3.63;;
48823;SDS011;34640;53.590;10.054;2023-01-13T07:26:01;24.65;;;3.70;;
48823;SDS011;34640;53.590;10.054;2023-01-13T07:28:35;24.75;;;3.55;;
48823;SDS011;34640;53.590;10.054;2023-01-13T07:31:14;25.92;;;3.83;;
48823;SDS011;34640;53.590;10.054;2023-01-13T07:33:50;25.58;;;3.67;;
48823;SDS011;34640;53.590;10.054;2023-01-13T07:36:23;32.42;;;4.72;;
48823;SDS011;34640;53.590;10.054;2023-01-13T07:38:57;28.15;;;3.58;;
48823;SDS011;34640;53.590;10.054;2023-01-13T07:41:31;26.30;;;5.15;;
48823;SDS011;34640;53.590;10.054;2023-01-13T07:44:22;39.53;;;4.65;;
48823;SDS011;34640;53.590;10.054;2023-01-13T07:46:57;28.27;;;3.30;;
48823;SDS011;34640;53.590;10.054;2023-01-13T07:49:31;29.92;;;3.78;;
48823;SDS011;34640;53.590;10.054;2023-01-13T07:52:05;30.55;;;4.53;;
48823;SDS011;34640;53.590;10.054;2023-01-13T07:54:40;36.42;;;4.40;;
48823;SDS011;34640;53.590;10.054;2023-01-13T07:57:13;35.10;;;3.70;;
48823;SDS011;34640;53.590;10.054;2023-01-13T07:59:47;29.63;;;4.63;;
48823;SDS011;34640;53.590;10.054;2023-01-13T08:02:22;28.20;;;4.13;;
48823;SDS011;34640;53.590;10.054;2023-01-13T08:04:56;25.10;;;3.42;;
48823;SDS011;34640;53.590;10.054;2023-01-13T08:07:30;28.25;;;4.88;;
48823;SDS011;34640;53.590;10.054;2023-01-13T08:10:04;29.30;;;3.63;;
48823;SDS011;34640;53.590;10.054;2023-01-13T08:12:38;22.90;;;3.00;;
48823;SDS011;34640;53.590;10.054;2023-01-13T08:15:30;30.23;;;5.55;;
48823;SDS011;34640;53.590;10.054;2023-01-13T08:18:05;32.85;;;3.97;;
48823;SDS011;34640;53.590;10.054;2023-01-13T08:20:39;29.00;;;5.07;;
48823;SDS011;34640;53.590;10.054;2023-01-13T08:23:13;28.00;;;3.97;;
48823;SDS011;34640;53.590;10.054;2023-01-13T08:25:51;33.28;;;4.10;;
48823;SDS011;34640;53.590;10.054;2023-01-13T08:28:25;31.00;;;4.25;;
48823;SDS011;34640;53.590;10.054;2023-01-13T08:30:58;26.27;;;3.63;;
48823;SDS011;34640;53.590;10.054;2023-01-13T08:33:34;26.42;;;4.13;;
48823;SDS011;34640;53.590;10.054;2023-01-13T08:36:09;20.20;;;3.17;;
48823;SDS011;34640;53.590;10.054;2023-01-13T08:38:44;27.88;;;3.75;;
48823;SDS011;34640;53.590;10.054;2023-01-13T08:41:17;34.00;;;4.68;;
48823;SDS011;34640;53.590;10.054;2023-01-13T08:44:11;26.88;;;3.47;;
48823;SDS011;34640;53.590;10.054;2023-01-13T08:46:45;34.80;;;4.60;;
48823;SDS011;34640;53.590;10.054;2023-01-13T08:49:20;24.60;;;3.67;;
48823;SDS011;34640;53.590;10.054;2023-01-13T08:51:54;31.38;;;3.50;;
48823;SDS011;34640;53.590;10.054;2023-01-13T08:54:28;26.88;;;4.18;;
48823;SDS011;34640;53.590;10.054;2023-01-13T08:57:02;28.05;;;4.53;;
48823;SDS011;34640;53.590;10.054;2023-01-13T08:59:36;27.50;;;4.30;;
48823;SDS011;34640;53.590;10.054;2023-01-13T09:02:11;31.35;;;3.80;;
48823;SDS011;34640;53.590;10.054;2023-01-13T09:04:48;24.58;;;4.00;;
48823;SDS011;34640;53.590;10.054;2023-01-13T09:07:23;22.08;;;3.03;;
48823;SDS011;34640;53.590;10.054;2023-01-13T09:09:57;31.98;;;4.32;;
48823;SDS011;34640;53.590;10.054;2023-01-13T09:12:30;34.70;;;3.83;;
48823;SDS011;34640;53.590;10.054;2023-01-13T09:15:22;17.85;;;2.50;;
48823;SDS011;34640;53.590;10.054;2023-01-13T09:17:56;21.10;;;3.00;;
48823;SDS011;34640;53.590;10.054;2023-01-13T09:20:31;22.83;;;3.30;;
48823;SDS011;34640;53.590;10.054;2023-01-13T09:23:04;22.08;;;3.00;;
48823;SDS011;34640;53.590;10.054;2023-01-13T09:25:42;27.88;;;3.28;;
48823;SDS011;34640;53.590;10.054;2023-01-13T09:28:15;21.35;;;3.80;;
48823;SDS011;34640;53.590;10.054;2023-01-13T09:30:49;21.35;;;3.13;;
48823;SDS011;34640;53.590;10.054;2023-01-13T09:33:23;22.83;;;2.65;;
48823;SDS011;34640;53.590;10.054;2023-01-13T09:36:15;19.63;;;2.95;;
48823;SDS011;34640;53.590;10.054;2023-01-13T09:38:49;20.55;;;3.50;;
48823;SDS011;34640;53.590;10.054;2023-01-13T09:41:23;21.25;;;2.58;;
48823;SDS011;34640;53.590;10.054;2023-01-13T09:44:18;14.77;;;2.45;;
48823;SDS011;34640;53.590;10.054;2023-01-13T09:49:33;21.90;;;2.60;;
48823;SDS011;34640;53.590;10.054;2023-01-13T09:52:13;15.82;;;2.53;;
48823;SDS011;34640;53.590;10.054;2023-01-13T09:54:51;15.77;;;2.33;;
48823;SDS011;34640;53.590;10.054;2023-01-13T09:57:31;14.60;;;2.30;;
48823;SDS011;34640;53.590;10.054;2023-01-13T10:00:10;18.60;;;3.92;;
48823;SDS011;34640;53.590;10.054;2023-01-13T10:02:53;14.77;;;2.40;;
48823;SDS011;34640;53.590;10.054;2023-01-13T10:05:41;28.75;;;3.13;;
48823;SDS011;34640;53.590;10.054;2023-01-13T10:08:19;21.95;;;2.80;;
48823;SDS011;34640;53.590;10.054;2023-01-13T10:10:55;16.20;;;2.70;;
48823;SDS011;34640;53.590;10.054;2023-01-13T10:13:31;22.75;;;3.28;;
48823;SDS011;34640;53.590;10.054;2023-01-13T10:16:06;22.33;;;2.72;;
48823;SDS011;34640;53.590;10.054;2023-01-13T10:18:58;13.82;;;2.38;;
48823;SDS011;34640;53.590;10.054;2023-01-13T10:21:59;17.30;;;2.60;;
48823;SDS011;34640;53.590;10.054;2023-01-13T10:24:57;17.65;;;2.42;;
48823;SDS011;34640;53.590;10.054;2023-01-13T10:27:50;17.27;;;2.42;;
48823;SDS011;34640;53.590;10.054;2023-01-13T10:30:26;11.55;;;2.13;;
48823;SDS011;34640;53.590;10.054;2023-01-13T10:33:08;14.20;;;2.22;;
48823;SDS011;34640;53.590;10.054;2023-01-13T10:35:48;19.30;;;2.00;;
48823;SDS011;34640;53.590;10.054;2023-01-13T10:38:28;11.50;;;2.10;;
48823;SDS011;34640;53.590;10.054;2023-01-13T10:41:17;20.63;;;3.05;;
48823;SDS011;34640;53.590;10.054;2023-01-13T10:43:57;20.85;;;2.80;;
48823;SDS011;34640;53.590;10.054;2023-01-13T10:46:34;15.18;;;2.17;;
48823;SDS011;34640;53.590;10.054;2023-01-13T10:49:25;14.75;;;2.83;;
48823;SDS011;34640;53.590;10.054;2023-01-13T10:52:02;14.80;;;1.87;;
48823;SDS011;34640;53.590;10.054;2023-01-13T10:54:56;12.35;;;2.58;;
48823;SDS011;34640;53.590;10.054;2023-01-13T10:57:34;14.13;;;2.17;;
48823;SDS011;34640;53.590;10.054;2023-01-13T11:00:14;12.85;;;2.63;;
48823;SDS011;34640;53.590;10.054;2023-01-13T11:03:15;15.32;;;2.20;;
48823;SDS011;34640;53.590;10.054;2023-01-13T11:05:51;17.45;;;2.70;;
48823;SDS011;34640;53.590;10.054;2023-01-13T11:08:27;20.15;;;2.05;;
48823;SDS011;34640;53.590;10.054;2023-01-13T11:11:20;10.82;;;2.00;;
48823;SDS011;34640;53.590;10.054;2023-01-13T11:14:00;16.33;;;2.08;;
48823;SDS011;34640;53.590;10.054;2023-01-13T11:16:55;15.80;;;2.17;;
48823;SDS011;34640;53.590;10.054;2023-01-13T11:19:33;17.23;;;2.08;;
48823;SDS011;34640;53.590;10.054;2023-01-13T11:22:10;19.80;;;3.10;;
48823;SDS011;34640;53.590;10.054;2023-01-13T11:24:50;13.73;;;3.13;;
48823;SDS011;34640;53.590;10.054;2023-01-13T11:27:31;22.23;;;3.37;;
48823;SDS011;34640;53.590;10.054;2023-01-13T11:30:19;20.25;;;2.95;;
48823;SDS011;34640;53.590;10.054;2023-01-13T11:33:06;16.27;;;2.35;;
48823;SDS011;34640;53.590;10.054;2023-01-13T11:35:50;27.50;;;3.97;;
48823;SDS011;34640;53.590;10.054;2023-01-13T11:38:36;11.45;;;2.28;;
48823;SDS011;34640;53.590;10.054;2023-01-13T11:41:29;14.88;;;2.13;;
48823;SDS011;34640;53.590;10.054;2023-01-13T11:44:12;15.73;;;2.60;;
48823;SDS011;34640;53.590;10.054;2023-01-13T11:46:52;14.73;;;2.40;;
48823;SDS011;34640;53.590;10.054;2023-01-13T11:49:27;13.45;;;1.83;;
48823;SDS011;34640;53.590;10.054;2023-01-13T11:52:03;13.55;;;1.83;;
48823;SDS011;34640;53.590;10.054;2023-01-13T11:54:53;9.13;;;1.58;;
48823;SDS011;34640;53.590;10.054;2023-01-13T11:57:54;14.00;;;2.42;;
48823;SDS011;34640;53.590;10.054;2023-01-13T12:03:52;14.60;;;2.08;;
48823;SDS011;34640;53.590;10.054;2023-01-13T12:06:37;14.55;;;2.40;;
48823;SDS011;34640;53.590;10.054;2023-01-13T12:09:20;13.68;;;2.45;;
48823;SDS011;34640;53.590;10.054;2023-01-13T12:12:06;15.85;;;2.25;;
48823;SDS011;34640;53.590;10.054;2023-01-13T12:14:57;15.52;;;2.70;;
48823;SDS011;34640;53.590;10.054;2023-01-13T12:17:54;11.35;;;1.98;;
48823;SDS011;34640;53.590;10.054;2023-01-13T12:20:47;9.70;;;1.77;;
48823;SDS011;34640;53.590;10.054;2023-01-13T12:23:34;15.20;;;1.98;;
48823;SDS011;34640;53.590;10.054;2023-01-13T12:26:13;14.40;;;2.53;;
48823;SDS011;34640;53.590;10.054;2023-01-13T12:28:49;11.85;;;2.30;;
48823;SDS011;34640;53.590;10.054;2023-01-13T12:31:26;11.52;;;1.92;;
48823;SDS011;34640;53.590;10.054;2023-01-13T12:34:08;11.85;;;2.47;;
48823;SDS011;34640;53.590;10.054;2023-01-13T12:36:57;16.25;;;2.15;;
48823;SDS011;34640;53.590;10.054;2023-01-13T12:39:41;10.68;;;1.65;;
48823;SDS011;34640;53.590;10.054;2023-01-13T12:42:21;14.82;;;2.13;;
48823;SDS011;34640;53.590;10.054;2023-01-13T12:45:21;15.77;;;2.50;;
48823;SDS011;34640;53.590;10.054;2023-01-13T12:47:58;20.50;;;2.70;;
48823;SDS011;34640;53.590;10.054;2023-01-13T12:53:33;13.20;;;2.55;;
48823;SDS011;34640;53.590;10.054;2023-01-13T12:56:29;20.25;;;3.55;;
48823;SDS011;34640;53.590;10.054;2023-01-13T12:59:31;15.13;;;2.10;;
48823;SDS011;34640;53.590;10.054;2023-01-13T13:02:27;13.20;;;2.13;;
48823;SDS011;34640;53.590;10.054;2023-01-13T13:08:20;14.73;;;2.30;;
48823;SDS011;34640;53.590;10.054;2023-01-13T13:11:05;18.60;;;2.67;;
48823;SDS011;34640;53.590;10.054;2023-01-13T13:17:38;22.67;;;3.00;;
48823;SDS011;34640;53.590;10.054;2023-01-13T13:23:25;19.73;;;3.30;;
48823;SDS011;34640;53.590;10.054;2023-01-13T13:32:20;15.25;;;2.03;;
48823;SDS011;34640;53.590;10.054;2023-01-13T13:35:28;16.48;;;2.75;;
48823;SDS011;34640;53.590;10.054;2023-01-13T13:38:13;15.43;;;2.95;;
48823;SDS011;34640;53.590;10.054;2023-01-13T13:41:15;14.20;;;2.10;;
48823;SDS011;34640;53.590;10.054;2023-01-13T13:44:12;15.18;;;2.33;;
48823;SDS011;34640;53.590;10.054;2023-01-13T13:47:09;15.52;;;2.38;;
48823;SDS011;34640;53.590;10.054;2023-01-13T13:49:43;22.92;;;3.65;;
48823;SDS011;34640;53.590;10.054;2023-01-13T13:52:21;16.75;;;2.55;;
48823;SDS011;34640;53.590;10.054;2023-01-13T13:55:02;10.85;;;2.28;;
48823;SDS011;34640;53.590;10.054;2023-01-13T13:57:43;17.10;;;2.60;;
48823;SDS011;34640;53.590;10.054;2023-01-13T14:00:22;9.38;;;2.42;;
48823;SDS011;34640;53.590;10.054;2023-01-13T14:02:57;12.30;;;1.98;;
48823;SDS011;34640;53.590;10.054;2023-01-13T14:05:33;23.83;;;3.63;;
48823;SDS011;34640;53.590;10.054;2023-01-13T14:08:11;17.33;;;2.72;;
48823;SDS011;34640;53.590;10.054;2023-01-13T14:10:47;12.15;;;2.83;;
48823;SDS011;34640;53.590;10.054;2023-01-13T14:13:22;24.55;;;3.40;;
48823;SDS011;34640;53.590;10.054;2023-01-13T14:15:59;16.48;;;2.72;;
48823;SDS011;34640;53.590;10.054;2023-01-13T14:18:43;11.23;;;2.88;;
48823;SDS011;34640;53.590;10.054;2023-01-13T14:21:21;14.10;;;2.63;;
48823;SDS011;34640;53.590;10.054;2023-01-13T14:23:58;12.57;;;3.25;;
48823;SDS011;34640;53.590;10.054;2023-01-13T14:26:35;17.98;;;2.83;;
48823;SDS011;34640;53.590;10.054;2023-01-13T14:29:12;16.80;;;3.42;;
48823;SDS011;34640;53.590;10.054;2023-01-13T14:31:52;12.88;;;2.85;;
48823;SDS011;34640;53.590;10.054;2023-01-13T14:34:26;17.45;;;2.63;;
48823;SDS011;34640;53.590;10.054;2023-01-13T14:37:18;18.40;;;2.58;;
48823;SDS011;34640;53.590;10.054;2023-01-13T14:39:57;18.75;;;2.67;;
48823;SDS011;34640;53.590;10.054;2023-01-13T14:42:30;14.77;;;2.88;;
48823;SDS011;34640;53.590;10.054;2023-01-13T14:45:19;16.55;;;3.05;;
48823;SDS011;34640;53.590;10.054;2023-01-13T14:47:57;19.42;;;2.47;;
48823;SDS011;34640;53.590;10.054;2023-01-13T14:50:33;16.27;;;3.03;;
48823;SDS011;34640;53.590;10.054;2023-01-13T14:55:59;14.50;;;2.60;;
48823;SDS011;34640;53.590;10.054;2023-01-13T14:58:53;19.17;;;3.10;;
48823;SDS011;34640;53.590;10.054;2023-01-13T15:01:27;14.55;;;2.15;;
48823;SDS011;34640;53.590;10.054;2023-01-13T15:06:59;13.13;;;2.55;;
48823;SDS011;34640;53.590;10.054;2023-01-13T15:09:36;14.55;;;2.50;;
48823;SDS011;34640;53.590;10.054;2023-01-13T15:12:13;17.60;;;2.93;;
48823;SDS011;34640;53.590;10.054;2023-01-13T15:14:50;13.57;;;2.63;;
48823;SDS011;34640;53.590;10.054;2023-01-13T15:17:23;20.23;;;3.85;;
48823;SDS011;34640;53.590;10.054;2023-01-13T15:19:58;11.75;;;2.33;;
48823;SDS011;34640;53.590;10.054;2023-01-13T15:22:34;17.17;;;2.80;;
48823;SDS011;34640;53.590;10.054;2023-01-13T15:25:08;10.80;;;1.80;;
48823;SDS011;34640;53.590;10.054;2023-01-13T15:27:42;13.18;;;2.13;;
48823;SDS011;34640;53.590;10.054;2023-01-13T15:30:18;14.13;;;2.70;;
48823;SDS011;34640;53.590;10.054;2023-01-13T15:32:56;8.88;;;2.13;;
48823;SDS011;34640;53.590;10.054;2023-01-13T15:35:40;11.27;;;2.00;;
48823;SDS011;34640;53.590;10.054;2023-01-13T15:38:15;6.38;;;1.40;;
48823;SDS011;34640;53.590;10.054;2023-01-13T15:40:51;4.47;;;0.93;;
48823;SDS011;34640;53.590;10.054;2023-01-13T15:43:24;5.70;;;0.98;;
48823;SDS011;34640;53.590;10.054;2023-01-13T15:46:16;7.53;;;1.00;;
48823;SDS011;34640;53.590;10.054;2023-01-13T15:49:10;4.40;;;0.82;;
48823;SDS011;34640;53.590;10.054;2023-01-13T15:51:54;7.25;;;1.10;;
48823;SDS011;34640;53.590;10.054;2023-01-13T15:54:28;6.75;;;1.00;;
48823;SDS011;34640;53.590;10.054;2023-01-13T15:57:02;5.97;;;1.00;;
48823;SDS011;34640;53.590;10.054;2023-01-13T15:59:36;5.95;;;1.02;;
48823;SDS011;34640;53.590;10.054;2023-01-13T16:02:09;9.77;;;1.20;;
48823;SDS011;34640;53.590;10.054;2023-01-13T16:04:47;10.40;;;1.27;;
48823;SDS011;34640;53.590;10.054;2023-01-13T16:07:24;7.15;;;1.25;;
48823;SDS011;34640;53.590;10.054;2023-01-13T16:09:58;7.00;;;1.48;;
48823;SDS011;34640;53.590;10.054;2023-01-13T16:12:33;7.03;;;1.17;;
48823;SDS011;34640;53.590;10.054;2023-01-13T16:15:09;6.20;;;1.20;;
48823;SDS011;34640;53.590;10.054;2023-01-13T16:17:45;5.40;;;0.95;;